Sacramento, Brazil
Current Conditions -  °F | °C
As of 8:00 PM on Saturday 25 Oct 2014 (Local Time) from SBUR Reporting Station
Haze Haze  
Wind Chill: 66°   Ceiling: 200
Heat Index: 66°   Visibility: 1.5mi
Dew Point: 66°   Wind: 12mph
Humidity: 100%   Direction: 140°SE
Pressure: 30"   Gusts: NA
Location:  19.87°S, 47.44°W
Report Text: SBUR 252200Z 14010KT 2500 BR OVC002 19/19 Q1016
Loading
Personal Weather Stations






























Interactive Weather Map
Tropical Storm Tracking
New forecast layout! Learn more

10-Day Weather Forecast

Advertisements
Track Severe Weather on mobile